sensor_id;sensor_type;location;lat;lon;timestamp;pressure;altitude;pressure_sealevel;temperature;humidity
84863;BME280;75117;43.224;76.776;2024-02-16T00:00:07;92030.84;;;4.90;65.02
84863;BME280;75117;43.224;76.776;2024-02-16T00:00:26;92027.16;;;4.91;65.06
84863;BME280;75117;43.224;76.776;2024-02-16T00:00:38;92034.66;;;4.92;65.04
84863;BME280;75117;43.224;76.776;2024-02-16T00:00:51;92026.38;;;4.90;64.56
84863;BME280;75117;43.224;76.776;2024-02-16T00:01:03;92035.75;;;4.91;65.23
84863;BME280;75117;43.224;76.776;2024-02-16T00:01:16;92038.38;;;4.91;64.50
84863;BME280;75117;43.224;76.776;2024-02-16T00:01:28;92033.44;;;4.90;66.08
84863;BME280;75117;43.224;76.776;2024-02-16T00:01:40;92035.75;;;4.91;66.25
84863;BME280;75117;43.224;76.776;2024-02-16T00:01:53;92035.31;;;4.89;64.63
84863;BME280;75117;43.224;76.776;2024-02-16T00:02:05;92037.16;;;4.89;66.41
84863;BME280;75117;43.224;76.776;2024-02-16T00:02:17;92036.06;;;4.90;65.60
84863;BME280;75117;43.224;76.776;2024-02-16T00:02:30;92036.41;;;4.88;65.48
84863;BME280;75117;43.224;76.776;2024-02-16T00:02:44;92035.97;;;4.86;65.69
84863;BME280;75117;43.224;76.776;2024-02-16T00:02:57;92021.56;;;4.80;65.05
84863;BME280;75117;43.224;76.776;2024-02-16T00:03:11;92029.66;;;4.87;66.01
84863;BME280;75117;43.224;76.776;2024-02-16T00:03:23;92016.66;;;4.78;66.00
84863;BME280;75117;43.224;76.776;2024-02-16T00:03:36;92032.56;;;4.86;66.30
84863;BME280;75117;43.224;76.776;2024-02-16T00:03:48;92041.19;;;4.86;66.46
84863;BME280;75117;43.224;76.776;2024-02-16T00:04:00;92035.19;;;4.86;64.75
84863;BME280;75117;43.224;76.776;2024-02-16T00:04:12;92033.66;;;4.84;66.01
84863;BME280;75117;43.224;76.776;2024-02-16T00:04:25;92029.84;;;4.82;66.43
84863;BME280;75117;43.224;76.776;2024-02-16T00:04:37;92032.78;;;4.80;65.75
84863;BME280;75117;43.224;76.776;2024-02-16T00:04:49;92037.69;;;4.82;65.72
84863;BME280;75117;43.224;76.776;2024-02-16T00:05:02;92031.47;;;4.74;65.92
84863;BME280;75117;43.224;76.776;2024-02-16T00:05:15;92023.16;;;4.72;64.96
84863;BME280;75117;43.224;76.776;2024-02-16T00:05:28;92040.94;;;4.79;65.40
84863;BME280;75117;43.224;76.776;2024-02-16T00:05:40;92033.44;;;4.77;64.96
84863;BME280;75117;43.224;76.776;2024-02-16T00:05:53;92030.56;;;4.70;64.57
84863;BME280;75117;43.224;76.776;2024-02-16T00:06:06;92029.81;;;4.70;66.44
84863;BME280;75117;43.224;76.776;2024-02-16T00:06:19;92036.03;;;4.77;66.42
84863;BME280;75117;43.224;76.776;2024-02-16T00:06:31;92043.13;;;4.77;66.59
84863;BME280;75117;43.224;76.776;2024-02-16T00:06:44;92044.19;;;4.76;65.24
84863;BME280;75117;43.224;76.776;2024-02-16T00:06:56;92040.06;;;4.75;65.06
84863;BME280;75117;43.224;76.776;2024-02-16T00:07:08;92043.00;;;4.73;65.60
84863;BME280;75117;43.224;76.776;2024-02-16T00:07:21;92038.84;;;4.72;65.43
84863;BME280;75117;43.224;76.776;2024-02-16T00:07:33;92043.00;;;4.73;65.80
84863;BME280;75117;43.224;76.776;2024-02-16T00:07:46;92040.25;;;4.70;66.05
84863;BME280;75117;43.224;76.776;2024-02-16T00:07:58;92040.25;;;4.70;66.45
84863;BME280;75117;43.224;76.776;2024-02-16T00:08:11;92043.63;;;4.70;65.41
84863;BME280;75117;43.224;76.776;2024-02-16T00:08:25;92042.13;;;4.69;65.47
84863;BME280;75117;43.224;76.776;2024-02-16T00:08:37;92039.81;;;4.68;65.53
84863;BME280;75117;43.224;76.776;2024-02-16T00:08:50;92043.06;;;4.65;65.74
84863;BME280;75117;43.224;76.776;2024-02-16T00:09:03;92041.66;;;4.67;66.16
84863;BME280;75117;43.224;76.776;2024-02-16T00:09:15;92038.59;;;4.65;64.79
84863;BME280;75117;43.224;76.776;2024-02-16T00:09:27;92036.75;;;4.66;65.84
84863;BME280;75117;43.224;76.776;2024-02-16T00:09:40;92027.47;;;4.56;66.37
84863;BME280;75117;43.224;76.776;2024-02-16T00:09:52;92043.84;;;4.65;65.61
84863;BME280;75117;43.224;76.776;2024-02-16T00:10:06;92037.09;;;4.64;66.20
84863;BME280;75117;43.224;76.776;2024-02-16T00:10:18;92040.75;;;4.63;66.43
84863;BME280;75117;43.224;76.776;2024-02-16T00:10:32;92032.91;;;4.63;65.72
84863;BME280;75117;43.224;76.776;2024-02-16T00:10:44;92034.78;;;4.63;66.29
84863;BME280;75117;43.224;76.776;2024-02-16T00:10:56;92039.69;;;4.64;65.86
84863;BME280;75117;43.224;76.776;2024-02-16T00:11:10;92031.41;;;4.62;65.25
84863;BME280;75117;43.224;76.776;2024-02-16T00:11:22;92031.09;;;4.64;65.87
84863;BME280;75117;43.224;76.776;2024-02-16T00:11:35;92039.69;;;4.64;66.11
84863;BME280;75117;43.224;76.776;2024-02-16T00:11:48;92032.63;;;4.65;64.97
84863;BME280;75117;43.224;76.776;2024-02-16T00:12:02;92042.31;;;4.64;66.36
84863;BME280;75117;43.224;76.776;2024-02-16T00:12:15;92034.47;;;4.64;66.10
84863;BME280;75117;43.224;76.776;2024-02-16T00:12:28;92031.84;;;4.64;65.69
84863;BME280;75117;43.224;76.776;2024-02-16T00:12:40;92026.94;;;4.63;65.34
84863;BME280;75117;43.224;76.776;2024-02-16T00:12:53;92026.63;;;4.64;65.88
84863;BME280;75117;43.224;76.776;2024-02-16T00:13:06;92028.50;;;4.64;65.52
84863;BME280;75117;43.224;76.776;2024-02-16T00:13:18;92028.78;;;4.62;66.71
84863;BME280;75117;43.224;76.776;2024-02-16T00:13:31;92031.09;;;4.64;66.89
84863;BME280;75117;43.224;76.776;2024-02-16T00:13:44;92027.41;;;4.65;64.62
84863;BME280;75117;43.224;76.776;2024-02-16T00:13:56;92027.41;;;4.65;64.75
84863;BME280;75117;43.224;76.776;2024-02-16T00:14:09;92027.69;;;4.63;65.84
84863;BME280;75117;43.224;76.776;2024-02-16T00:14:21;92028.16;;;4.65;65.26
84863;BME280;75117;43.224;76.776;2024-02-16T00:14:34;92024.03;;;4.64;65.09
84863;BME280;75117;43.224;76.776;2024-02-16T00:14:46;92029.25;;;4.64;65.71
84863;BME280;75117;43.224;76.776;2024-02-16T00:14:59;92024.31;;;4.63;66.24
84863;BME280;75117;43.224;76.776;2024-02-16T00:15:11;92028.78;;;4.62;65.27
84863;BME280;75117;43.224;76.776;2024-02-16T00:15:24;92028.78;;;4.62;66.53
84863;BME280;75117;43.224;76.776;2024-02-16T00:15:37;92023.88;;;4.61;65.65
84863;BME280;75117;43.224;76.776;2024-02-16T00:15:50;92018.09;;;4.55;66.54
84863;BME280;75117;43.224;76.776;2024-02-16T00:16:02;92028.22;;;4.56;66.47
84863;BME280;75117;43.224;76.776;2024-02-16T00:16:15;92032.69;;;4.56;65.41
84863;BME280;75117;43.224;76.776;2024-02-16T00:16:27;92035.63;;;4.54;65.87
84863;BME280;75117;43.224;76.776;2024-02-16T00:16:40;92028.84;;;4.53;67.27
84863;BME280;75117;43.224;76.776;2024-02-16T00:16:52;92026.56;;;4.52;66.88
84863;BME280;75117;43.224;76.776;2024-02-16T00:17:05;92032.91;;;4.51;66.33
84863;BME280;75117;43.224;76.776;2024-02-16T00:17:18;92026.16;;;4.50;66.61
84863;BME280;75117;43.224;76.776;2024-02-16T00:17:31;92030.91;;;4.48;66.57
84863;BME280;75117;43.224;76.776;2024-02-16T00:17:43;92018.69;;;4.40;65.67
84863;BME280;75117;43.224;76.776;2024-02-16T00:17:55;92030.91;;;4.48;65.58
84863;BME280;75117;43.224;76.776;2024-02-16T00:18:08;92034.16;;;4.45;66.49
84863;BME280;75117;43.224;76.776;2024-02-16T00:18:20;92026.66;;;4.43;67.30
84863;BME280;75117;43.224;76.776;2024-02-16T00:18:32;92024.22;;;4.38;66.84
84863;BME280;75117;43.224;76.776;2024-02-16T00:18:45;92030.78;;;4.44;66.57
84863;BME280;75117;43.224;76.776;2024-02-16T00:18:57;92038.94;;;4.43;66.75
84863;BME280;75117;43.224;76.776;2024-02-16T00:19:09;92037.44;;;4.42;67.15
84863;BME280;75117;43.224;76.776;2024-02-16T00:19:22;92028.81;;;4.41;67.30
84863;BME280;75117;43.224;76.776;2024-02-16T00:19:34;92031.75;;;4.40;67.09
84863;BME280;75117;43.224;76.776;2024-02-16T00:19:46;92028.38;;;4.39;66.34
84863;BME280;75117;43.224;76.776;2024-02-16T00:19:59;92030.97;;;4.39;66.30
84863;BME280;75117;43.224;76.776;2024-02-16T00:20:12;92032.84;;;4.39;67.34
84863;BME280;75117;43.224;76.776;2024-02-16T00:20:24;92033.59;;;4.39;67.39
84863;BME280;75117;43.224;76.776;2024-02-16T00:20:36;92036.22;;;4.39;67.60
84863;BME280;75117;43.224;76.776;2024-02-16T00:20:48;92033.59;;;4.39;66.37
84863;BME280;75117;43.224;76.776;2024-02-16T00:21:01;92013.09;;;4.29;67.25
84863;BME280;75117;43.224;76.776;2024-02-16T00:21:13;92028.69;;;4.38;67.20
84863;BME280;75117;43.224;76.776;2024-02-16T00:21:27;92023.81;;;4.36;66.34
84863;BME280;75117;43.224;76.776;2024-02-16T00:21:39;92018.25;;;4.38;67.20
84863;BME280;75117;43.224;76.776;2024-02-16T00:21:53;92026.09;;;4.38;67.00
84863;BME280;75117;43.224;76.776;2024-02-16T00:22:07;92020.41;;;4.36;66.98
84863;BME280;75117;43.224;76.776;2024-02-16T00:22:20;92024.22;;;4.38;67.68
84863;BME280;75117;43.224;76.776;2024-02-16T00:22:33;92008.63;;;4.29;66.41
84863;BME280;75117;43.224;76.776;2024-02-16T00:22:45;92028.69;;;4.38;67.17
84863;BME280;75117;43.224;76.776;2024-02-16T00:22:58;92021.19;;;4.36;67.31
84863;BME280;75117;43.224;76.776;2024-02-16T00:23:12;92024.22;;;4.38;66.41
84863;BME280;75117;43.224;76.776;2024-02-16T00:23:24;92021.63;;;4.38;66.76
84863;BME280;75117;43.224;76.776;2024-02-16T00:23:37;92018.25;;;4.38;67.59
84863;BME280;75117;43.224;76.776;2024-02-16T00:23:49;92019.34;;;4.37;66.98
84863;BME280;75117;43.224;76.776;2024-02-16T00:24:01;92023.47;;;4.38;66.17
84863;BME280;75117;43.224;76.776;2024-02-16T00:24:14;92015.63;;;4.38;66.96
84863;BME280;75117;43.224;76.776;2024-02-16T00:24:27;92011.69;;;4.31;66.50
84863;BME280;75117;43.224;76.776;2024-02-16T00:24:39;92023.91;;;4.40;67.33
84863;BME280;75117;43.224;76.776;2024-02-16T00:24:51;92023.47;;;4.38;66.06
84863;BME280;75117;43.224;76.776;2024-02-16T00:25:04;92025.47;;;4.41;66.92
84863;BME280;75117;43.224;76.776;2024-02-16T00:25:17;92013.78;;;4.38;66.34
84863;BME280;75117;43.224;76.776;2024-02-16T00:25:30;92026.97;;;4.42;67.04
84863;BME280;75117;43.224;76.776;2024-02-16T00:25:42;92027.75;;;4.42;66.59
84863;BME280;75117;43.224;76.776;2024-02-16T00:25:55;92019.13;;;4.42;65.95
84863;BME280;75117;43.224;76.776;2024-02-16T00:26:07;92014.13;;;4.37;67.11
84863;BME280;75117;43.224;76.776;2024-02-16T00:26:19;92028.16;;;4.44;66.35
84863;BME280;75117;43.224;76.776;2024-02-16T00:26:33;92020.34;;;4.44;66.53
84863;BME280;75117;43.224;76.776;2024-02-16T00:26:45;92026.66;;;4.43;66.79
84863;BME280;75117;43.224;76.776;2024-02-16T00:26:58;92015.88;;;4.45;67.15
84863;BME280;75117;43.224;76.776;2024-02-16T00:27:11;92024.78;;;4.44;67.41
84863;BME280;75117;43.224;76.776;2024-02-16T00:27:23;92015.63;;;4.38;67.25
84863;BME280;75117;43.224;76.776;2024-02-16T00:27:35;92018.06;;;4.43;66.31
84863;BME280;75117;43.224;76.776;2024-02-16T00:27:48;92020.03;;;4.46;65.78
84863;BME280;75117;43.224;76.776;2024-02-16T00:28:00;92019.28;;;4.45;66.25
84863;BME280;75117;43.224;76.776;2024-02-16T00:28:13;92009.66;;;4.37;67.08
84863;BME280;75117;43.224;76.776;2024-02-16T00:28:25;92031.66;;;4.48;65.89
84863;BME280;75117;43.224;76.776;2024-02-16T00:28:37;92029.06;;;4.48;66.86
84863;BME280;75117;43.224;76.776;2024-02-16T00:28:50;92027.97;;;4.49;67.02
84863;BME280;75117;43.224;76.776;2024-02-16T00:29:02;92030.91;;;4.48;67.13
84863;BME280;75117;43.224;76.776;2024-02-16T00:29:14;92029.06;;;4.48;66.92
84863;BME280;75117;43.224;76.776;2024-02-16T00:29:27;92021.22;;;4.48;66.73
84863;BME280;75117;43.224;76.776;2024-02-16T00:29:39;92031.38;;;4.50;66.44
84863;BME280;75117;43.224;76.776;2024-02-16T00:29:52;92032.13;;;4.50;66.11
84863;BME280;75117;43.224;76.776;2024-02-16T00:30:05;92021.97;;;4.49;65.87
84863;BME280;75117;43.224;76.776;2024-02-16T00:30:17;92037.47;;;4.54;65.48
84863;BME280;75117;43.224;76.776;2024-02-16T00:30:30;92015.56;;;4.46;65.55
84863;BME280;75117;43.224;76.776;2024-02-16T00:30:42;92040.06;;;4.54;67.09
84863;BME280;75117;43.224;76.776;2024-02-16T00:30:55;92035.31;;;4.56;65.59
84863;BME280;75117;43.224;76.776;2024-02-16T00:31:07;92039.00;;;4.55;66.28
84863;BME280;75117;43.224;76.776;2024-02-16T00:31:19;92030.41;;;4.54;67.70
84863;BME280;75117;43.224;76.776;2024-02-16T00:31:32;92037.16;;;4.55;67.20
84863;BME280;75117;43.224;76.776;2024-02-16T00:31:45;92025.19;;;4.54;66.30
84863;BME280;75117;43.224;76.776;2024-02-16T00:31:57;92028.84;;;4.53;66.13
84863;BME280;75117;43.224;76.776;2024-02-16T00:32:11;92022.88;;;4.53;66.43
84863;BME280;75117;43.224;76.776;2024-02-16T00:32:24;92025.81;;;4.51;66.46
84863;BME280;75117;43.224;76.776;2024-02-16T00:32:41;92011.31;;;4.42;66.83
84863;BME280;75117;43.224;76.776;2024-02-16T00:32:53;92022.75;;;4.49;66.58
84863;BME280;75117;43.224;76.776;2024-02-16T00:33:06;92018.59;;;4.48;65.83
84863;BME280;75117;43.224;76.776;2024-02-16T00:33:19;92030.16;;;4.47;65.93
84863;BME280;75117;43.224;76.776;2024-02-16T00:33:31;92024.16;;;4.47;65.81
84863;BME280;75117;43.224;76.776;2024-02-16T00:33:43;92019.69;;;4.47;65.87
84863;BME280;75117;43.224;76.776;2024-02-16T00:33:56;92023.41;;;4.46;66.94
84863;BME280;75117;43.224;76.776;2024-02-16T00:34:08;92027.88;;;4.46;67.37
84863;BME280;75117;43.224;76.776;2024-02-16T00:34:20;92022.38;;;4.39;66.63
84863;BME280;75117;43.224;76.776;2024-02-16T00:34:35;92036.00;;;4.44;67.59
84863;BME280;75117;43.224;76.776;2024-02-16T00:34:47;92031.13;;;4.43;66.76
84863;BME280;75117;43.224;76.776;2024-02-16T00:34:59;92038.19;;;4.42;66.46
84863;BME280;75117;43.224;76.776;2024-02-16T00:35:12;92032.19;;;4.42;66.99
84863;BME280;75117;43.224;76.776;2024-02-16T00:35:24;92029.13;;;4.40;67.44
84863;BME280;75117;43.224;76.776;2024-02-16T00:35:36;92033.28;;;4.41;66.91
84863;BME280;75117;43.224;76.776;2024-02-16T00:35:49;92030.22;;;4.39;66.84
84863;BME280;75117;43.224;76.776;2024-02-16T00:36:01;92026.50;;;4.40;67.58
84863;BME280;75117;43.224;76.776;2024-02-16T00:36:14;92020.53;;;4.39;67.14
84863;BME280;75117;43.224;76.776;2024-02-16T00:36:26;92005.38;;;4.32;66.36
84863;BME280;75117;43.224;76.776;2024-02-16T00:36:39;92015.00;;;4.41;67.13
84863;BME280;75117;43.224;76.776;2024-02-16T00:36:52;92010.53;;;4.41;66.99
84863;BME280;75117;43.224;76.776;2024-02-16T00:37:04;91996.72;;;4.41;67.63
84863;BME280;75117;43.224;76.776;2024-02-16T00:37:21;92004.66;;;4.44;67.96
84863;BME280;75117;43.224;76.776;2024-02-16T00:37:33;91996.06;;;4.44;67.70
84863;BME280;75117;43.224;76.776;2024-02-16T00:37:46;92000.66;;;4.47;68.20
84863;BME280;75117;43.224;76.776;2024-02-16T00:37:59;91989.88;;;4.48;66.69
84863;BME280;75117;43.224;76.776;2024-02-16T00:38:11;91994.34;;;4.48;67.11
84863;BME280;75117;43.224;76.776;2024-02-16T00:38:24;91995.84;;;4.49;67.61
84863;BME280;75117;43.224;76.776;2024-02-16T00:38:36;91995.56;;;4.50;67.07
84863;BME280;75117;43.224;76.776;2024-02-16T00:38:49;92000.03;;;4.50;66.14
84863;BME280;75117;43.224;76.776;2024-02-16T00:39:02;91994.00;;;4.49;66.82
84863;BME280;75117;43.224;76.776;2024-02-16T00:39:15;92000.03;;;4.50;67.19
84863;BME280;75117;43.224;76.776;2024-02-16T00:39:27;92005.25;;;4.50;66.40
84863;BME280;75117;43.224;76.776;2024-02-16T00:39:40;92004.16;;;4.51;67.26
84863;BME280;75117;43.224;76.776;2024-02-16T00:39:52;92014.28;;;4.52;67.38
84863;BME280;75117;43.224;76.776;2024-02-16T00:40:07;92010.13;;;4.51;67.37
84863;BME280;75117;43.224;76.776;2024-02-16T00:40:19;91998.59;;;4.52;67.34
84863;BME280;75117;43.224;76.776;2024-02-16T00:40:32;92003.06;;;4.52;66.88
84863;BME280;75117;43.224;76.776;2024-02-16T00:40:44;92004.59;;;4.53;66.18
84863;BME280;75117;43.224;76.776;2024-02-16T00:40:56;91998.59;;;4.52;67.75
84863;BME280;75117;43.224;76.776;2024-02-16T00:41:18;91981.59;;;4.46;66.68
84863;BME280;75117;43.224;76.776;2024-02-16T00:41:31;91978.78;;;4.51;66.13
84863;BME280;75117;43.224;76.776;2024-02-16T00:41:43;91981.81;;;4.53;66.34
84863;BME280;75117;43.224;76.776;2024-02-16T00:41:58;91973.56;;;4.51;66.34
84863;BME280;75117;43.224;76.776;2024-02-16T00:42:10;91976.50;;;4.50;66.48
84863;BME280;75117;43.224;76.776;2024-02-16T00:42:22;91974.94;;;4.49;65.96
84863;BME280;75117;43.224;76.776;2024-02-16T00:42:35;91962.31;;;4.39;66.22
84863;BME280;75117;43.224;76.776;2024-02-16T00:42:48;91975.63;;;4.46;66.14
84863;BME280;75117;43.224;76.776;2024-02-16T00:43:00;91983.75;;;4.44;67.52
84863;BME280;75117;43.224;76.776;2024-02-16T00:43:12;91976.88;;;4.40;67.42
84863;BME280;75117;43.224;76.776;2024-02-16T00:43:26;91981.03;;;4.41;67.15
84863;BME280;75117;43.224;76.776;2024-02-16T00:43:38;91992.56;;;4.40;66.02
84863;BME280;75117;43.224;76.776;2024-02-16T00:43:51;91997.03;;;4.39;66.38
84863;BME280;75117;43.224;76.776;2024-02-16T00:44:04;91996.59;;;4.37;68.22
84863;BME280;75117;43.224;76.776;2024-02-16T00:44:17;92008.13;;;4.36;67.42
84863;BME280;75117;43.224;76.776;2024-02-16T00:44:29;91997.97;;;4.35;67.40
84863;BME280;75117;43.224;76.776;2024-02-16T00:44:41;92006.56;;;4.35;66.52
84863;BME280;75117;43.224;76.776;2024-02-16T00:44:54;92004.28;;;4.33;67.61
84863;BME280;75117;43.224;76.776;2024-02-16T00:45:07;92007.25;;;4.32;67.44
84863;BME280;75117;43.224;76.776;2024-02-16T00:45:20;92008.00;;;4.32;66.93
84863;BME280;75117;43.224;76.776;2024-02-16T00:45:32;91994.81;;;4.29;68.37
84863;BME280;75117;43.224;76.776;2024-02-16T00:45:44;91998.63;;;4.31;68.45
84863;BME280;75117;43.224;76.776;2024-02-16T00:45:57;91993.41;;;4.31;68.33
84863;BME280;75117;43.224;76.776;2024-02-16T00:46:10;91997.84;;;4.31;67.08
84863;BME280;75117;43.224;76.776;2024-02-16T00:46:23;91991.88;;;4.30;67.72
84863;BME280;75117;43.224;76.776;2024-02-16T00:46:36;91988.19;;;4.31;68.66
84863;BME280;75117;43.224;76.776;2024-02-16T00:46:48;91977.47;;;4.24;67.42
84863;BME280;75117;43.224;76.776;2024-02-16T00:47:00;91969.31;;;4.26;68.83
84863;BME280;75117;43.224;76.776;2024-02-16T00:47:13;91984.78;;;4.31;67.05
84863;BME280;75117;43.224;76.776;2024-02-16T00:47:28;91985.59;;;4.31;66.88
84863;BME280;75117;43.224;76.776;2024-02-16T00:47:40;91989.25;;;4.30;68.58
84863;BME280;75117;43.224;76.776;2024-02-16T00:47:53;91994.19;;;4.32;68.55
84863;BME280;75117;43.224;76.776;2024-02-16T00:48:05;91989.25;;;4.30;68.57
84863;BME280;75117;43.224;76.776;2024-02-16T00:48:18;91991.09;;;4.30;67.42
84863;BME280;75117;43.224;76.776;2024-02-16T00:48:30;91990.69;;;4.28;68.24
84863;BME280;75117;43.224;76.776;2024-02-16T00:48:43;91999.28;;;4.28;68.80
84863;BME280;75117;43.224;76.776;2024-02-16T00:48:55;91996.72;;;4.20;67.76
84863;BME280;75117;43.224;76.776;2024-02-16T00:49:08;92002.97;;;4.27;67.56
84863;BME280;75117;43.224;76.776;2024-02-16T00:49:22;92003.28;;;4.26;68.56
84863;BME280;75117;43.224;76.776;2024-02-16T00:49:34;92007.72;;;4.25;68.05
84863;BME280;75117;43.224;76.776;2024-02-16T00:49:46;92010.03;;;4.27;67.92
84863;BME280;75117;43.224;76.776;2024-02-16T00:49:59;92010.03;;;4.27;68.60
84863;BME280;75117;43.224;76.776;2024-02-16T00:50:11;92006.22;;;4.24;68.68
84863;BME280;75117;43.224;76.776;2024-02-16T00:50:24;92010.34;;;4.25;69.31
84863;BME280;75117;43.224;76.776;2024-02-16T00:50:38;91995.06;;;4.15;68.45
84863;BME280;75117;43.224;76.776;2024-02-16T00:50:50;91987.94;;;4.24;67.85
84863;BME280;75117;43.224;76.776;2024-02-16T00:51:02;91998.38;;;4.24;69.43
84863;BME280;75117;43.224;76.776;2024-02-16T00:51:15;92001.31;;;4.23;69.15
84863;BME280;75117;43.224;76.776;2024-02-16T00:51:28;91999.75;;;4.22;68.66
84863;BME280;75117;43.224;76.776;2024-02-16T00:51:41;91992.69;;;4.22;68.25
84863;BME280;75117;43.224;76.776;2024-02-16T00:51:53;91993.47;;;4.23;69.29
84863;BME280;75117;43.224;76.776;2024-02-16T00:52:06;91989.31;;;4.22;68.68
84863;BME280;75117;43.224;76.776;2024-02-16T00:52:19;91981.81;;;4.20;69.28
84863;BME280;75117;43.224;76.776;2024-02-16T00:52:31;91987.03;;;4.20;69.08
84863;BME280;75117;43.224;76.776;2024-02-16T00:52:43;91974.50;;;4.14;68.61
84863;BME280;75117;43.224;76.776;2024-02-16T00:52:57;91985.50;;;4.19;69.33
84863;BME280;75117;43.224;76.776;2024-02-16T00:53:11;91988.88;;;4.20;70.05
84863;BME280;75117;43.224;76.776;2024-02-16T00:53:23;91990.75;;;4.19;68.65
84863;BME280;75117;43.224;76.776;2024-02-16T00:53:36;91988.13;;;4.19;70.17
84863;BME280;75117;43.224;76.776;2024-02-16T00:53:48;91986.59;;;4.18;68.36
84863;BME280;75117;43.224;76.776;2024-02-16T00:54:01;91990.75;;;4.19;68.13
84863;BME280;75117;43.224;76.776;2024-02-16T00:54:15;91992.59;;;4.19;69.75
84863;BME280;75117;43.224;76.776;2024-02-16T00:54:27;91995.19;;;4.19;68.56
84863;BME280;75117;43.224;76.776;2024-02-16T00:54:39;91989.22;;;4.18;69.63
84863;BME280;75117;43.224;76.776;2024-02-16T00:54:52;91980.34;;;4.11;68.24
84863;BME280;75117;43.224;76.776;2024-02-16T00:55:04;91996.25;;;4.18;69.30
84863;BME280;75117;43.224;76.776;2024-02-16T00:55:17;91998.88;;;4.18;70.17
84863;BME280;75117;43.224;76.776;2024-02-16T00:55:29;91996.25;;;4.18;68.60
84863;BME280;75117;43.224;76.776;2024-02-16T00:55:42;92004.09;;;4.18;69.49
84863;BME280;75117;43.224;76.776;2024-02-16T00:55:57;92005.19;;;4.17;68.89
84863;BME280;75117;43.224;76.776;2024-02-16T00:56:09;91995.50;;;4.17;70.05
84863;BME280;75117;43.224;76.776;2024-02-16T00:56:23;92002.56;;;4.17;69.81
84863;BME280;75117;43.224;76.776;2024-02-16T00:56:35;92005.19;;;4.17;68.69
84863;BME280;75117;43.224;76.776;2024-02-16T00:56:48;91999.97;;;4.17;69.62
84863;BME280;75117;43.224;76.776;2024-02-16T00:57:00;92009.66;;;4.16;69.41
84863;BME280;75117;43.224;76.776;2024-02-16T00:57:14;92004.44;;;4.16;68.93
84863;BME280;75117;43.224;76.776;2024-02-16T00:57:27;92005.50;;;4.15;69.28
84863;BME280;75117;43.224;76.776;2024-02-16T00:57:39;92008.88;;;4.16;69.26
84863;BME280;75117;43.224;76.776;2024-02-16T00:57:51;92012.59;;;4.15;70.02
84863;BME280;75117;43.224;76.776;2024-02-16T00:58:04;92000.78;;;4.08;70.19
84863;BME280;75117;43.224;76.776;2024-02-16T00:58:16;92011.06;;;4.14;69.52
84863;BME280;75117;43.224;76.776;2024-02-16T00:58:29;92001.88;;;4.07;70.40
84863;BME280;75117;43.224;76.776;2024-02-16T00:58:41;92009.50;;;4.13;69.69
84863;BME280;75117;43.224;76.776;2024-02-16T00:58:56;92015.19;;;4.15;69.36
84863;BME280;75117;43.224;76.776;2024-02-16T00:59:08;92011.81;;;4.14;69.43
84863;BME280;75117;43.224;76.776;2024-02-16T00:59:21;92015.19;;;4.15;70.42
84863;BME280;75117;43.224;76.776;2024-02-16T00:59:34;92019.97;;;4.13;69.35
84863;BME280;75117;43.224;76.776;2024-02-16T00:59:46;92012.88;;;4.13;69.02
84863;BME280;75117;43.224;76.776;2024-02-16T00:59:59;92012.44;;;4.11;69.65
84863;BME280;75117;43.224;76.776;2024-02-16T01:00:12;92016.28;;;4.14;71.07
84863;BME280;75117;43.224;76.776;2024-02-16T01:00:24;92018.91;;;4.14;69.78
84863;BME280;75117;43.224;76.776;2024-02-16T01:00:37;92003.59;;;4.03;70.53
84863;BME280;75117;43.224;76.776;2024-02-16T01:00:50;92019.97;;;4.13;71.08
84863;BME280;75117;43.224;76.776;2024-02-16T01:01:03;92015.81;;;4.12;71.41
84863;BME280;75117;43.224;76.776;2024-02-16T01:01:16;92012.78;;;4.10;70.23
84863;BME280;75117;43.224;76.776;2024-02-16T01:01:28;92019.19;;;4.12;70.61
84863;BME280;75117;43.224;76.776;2024-02-16T01:01:41;92016.91;;;4.11;70.17
84863;BME280;75117;43.224;76.776;2024-02-16T01:01:53;92024.41;;;4.12;69.88
84863;BME280;75117;43.224;76.776;2024-02-16T01:02:06;92020.28;;;4.11;71.09
84863;BME280;75117;43.224;76.776;2024-02-16T01:02:18;92012.66;;;4.06;70.62
84863;BME280;75117;43.224;76.776;2024-02-16T01:02:31;92030.09;;;4.14;70.95
84863;BME280;75117;43.224;76.776;2024-02-16T01:02:44;92019.97;;;4.13;70.59
84863;BME280;75117;43.224;76.776;2024-02-16T01:02:56;92025.19;;;4.13;71.23
84863;BME280;75117;43.224;76.776;2024-02-16T01:03:09;92015.50;;;4.13;71.02
84863;BME280;75117;43.224;76.776;2024-02-16T01:03:21;92019.97;;;4.13;70.91
84863;BME280;75117;43.224;76.776;2024-02-16T01:03:34;92018.09;;;4.13;70.09
84863;BME280;75117;43.224;76.776;2024-02-16T01:03:47;92022.56;;;4.13;71.12
84863;BME280;75117;43.224;76.776;2024-02-16T01:03:59;92027.50;;;4.14;70.74
84863;BME280;75117;43.224;76.776;2024-02-16T01:04:11;92009.28;;;4.05;70.06
84863;BME280;75117;43.224;76.776;2024-02-16T01:04:24;92016.16;;;4.10;70.14
84863;BME280;75117;43.224;76.776;2024-02-16T01:04:36;92021.38;;;4.10;70.09
84863;BME280;75117;43.224;76.776;2024-02-16T01:04:48;92021.06;;;4.12;70.14
84863;BME280;75117;43.224;76.776;2024-02-16T01:05:02;92013.22;;;4.12;70.35
84863;BME280;75117;43.224;76.776;2024-02-16T01:05:14;92017.34;;;4.13;70.72
84863;BME280;75117;43.224;76.776;2024-02-16T01:05:29;92012.88;;;4.13;70.65
84863;BME280;75117;43.224;76.776;2024-02-16T01:05:41;92012.13;;;4.13;70.55
84863;BME280;75117;43.224;76.776;2024-02-16T01:05:54;92013.69;;;4.14;71.29
84863;BME280;75117;43.224;76.776;2024-02-16T01:06:06;92015.50;;;4.13;70.30
84863;BME280;75117;43.224;76.776;2024-02-16T01:06:20;92008.44;;;4.14;69.41
84863;BME280;75117;43.224;76.776;2024-02-16T01:06:33;92013.69;;;4.14;70.72
84863;BME280;75117;43.224;76.776;2024-02-16T01:06:45;92014.44;;;4.14;70.01
84863;BME280;75117;43.224;76.776;2024-02-16T01:06:58;92010.75;;;4.15;71.08
84863;BME280;75117;43.224;76.776;2024-02-16T01:07:10;92013.69;;;4.14;70.55
84863;BME280;75117;43.224;76.776;2024-02-16T01:07:24;92012.59;;;4.15;69.75